Time;durP1;ratioP1;P1;durP2;ratioP2;P2;SDS_P1;SDS_P2;PMS_P1;PMS_P2;Temp;Humidity;BMP_temperature;BMP_pressure;BME280_temperature;BME280_humidity;BME280_pressure;Samples;Min_cycle;Max_cycle;Signal;HPM_P1;HPM_P2
2023/08/11 00:00:13;;;;;;;1.17;0.90;;;23.60;51.70;;;;;;5080241;28;20028;-69
2023/08/11 00:02:39;;;;;;;1.60;0.77;;;23.60;51.70;;;;;;5077940;28;20054;-68
2023/08/11 00:05:08;;;;;;;1.15;0.82;;;23.60;51.70;;;;;;5078949;28;20095;-71
2023/08/11 00:07:34;;;;;;;1.08;0.80;;;23.60;51.70;;;;;;5079912;28;20035;-69
2023/08/11 00:09:59;;;;;;;1.17;0.90;;;23.60;51.70;;;;;;5078684;28;20028;-71
2023/08/11 00:12:25;;;;;;;1.23;0.90;;;23.60;51.70;;;;;;5079227;28;20395;-72
2023/08/11 00:14:52;;;;;;;1.50;1.00;;;23.60;51.70;;;;;;5079575;28;20142;-69
2023/08/11 00:17:19;;;;;;;1.10;1.00;;;23.60;51.70;;;;;;5082187;28;20079;-72
2023/08/11 00:19:44;;;;;;;1.27;0.98;;;23.60;51.70;;;;;;5078644;28;20197;-72
2023/08/11 00:22:10;;;;;;;1.48;1.00;;;23.60;51.70;;;;;;5077719;28;20040;-70
2023/08/11 00:24:35;;;;;;;1.35;0.90;;;23.60;51.70;;;;;;5063089;28;20520;-70
2023/08/11 00:27:02;;;;;;;1.38;0.80;;;23.60;51.70;;;;;;5076868;28;20024;-70
2023/08/11 00:29:33;;;;;;;0.98;0.82;;;23.60;51.70;;;;;;5081084;28;20048;-71
2023/08/11 00:31:58;;;;;;;1.15;0.95;;;23.60;51.70;;;;;;5078341;28;20664;-70
2023/08/11 00:34:24;;;;;;;1.33;0.90;;;23.60;51.70;;;;;;5078604;28;20029;-62
2023/08/11 00:36:49;;;;;;;1.15;0.90;;;23.60;51.70;;;;;;5078325;28;20043;-62
2023/08/11 00:39:15;;;;;;;1.33;0.95;;;23.60;51.70;;;;;;5079384;28;20028;-61
2023/08/11 00:41:41;;;;;;;1.13;0.90;;;23.60;52.30;;;;;;5063261;28;20487;-62
2023/08/11 00:44:07;;;;;;;1.27;0.98;;;23.60;51.70;;;;;;5078532;28;20108;-63
2023/08/11 00:46:33;;;;;;;1.25;0.98;;;23.60;51.70;;;;;;5078225;28;20460;-62
2023/08/11 00:48:59;;;;;;;1.48;0.98;;;23.50;51.70;;;;;;5078632;28;20047;-62
2023/08/11 00:51:25;;;;;;;1.30;0.98;;;23.60;51.70;;;;;;5078891;28;20503;-61
2023/08/11 00:53:51;;;;;;;1.52;1.10;;;23.60;51.70;;;;;;5080197;28;20032;-61
2023/08/11 00:56:22;;;;;;;1.20;0.90;;;23.50;51.70;;;;;;5079116;28;20051;-60
2023/08/11 00:58:49;;;;;;;1.02;0.90;;;23.50;51.70;;;;;;5077463;28;20645;-62
2023/08/11 01:01:15;;;;;;;1.45;1.00;;;23.50;51.70;;;;;;5065083;28;20035;-61
2023/08/11 01:03:43;;;;;;;1.00;0.90;;;23.50;51.70;;;;;;5078125;28;20074;-63
2023/08/11 01:06:16;;;;;;;1.08;0.80;;;23.60;51.70;;;;;;5078441;28;20040;-68
2023/08/11 01:09:14;;;;;;;1.10;0.80;;;23.50;51.70;;;;;;5078943;28;20114;-70
2023/08/11 01:11:49;;;;;;;1.90;0.90;;;23.50;51.70;;;;;;5077923;28;20861;-68
2023/08/11 01:14:24;;;;;;;1.23;1.00;;;23.50;51.70;;;;;;5077579;28;20028;-68
2023/08/11 01:16:51;;;;;;;1.30;0.90;;;23.50;51.60;;;;;;5078230;28;20089;-68
2023/08/11 01:19:35;;;;;;;1.08;0.85;;;23.50;51.70;;;;;;5078721;28;20033;-69
2023/08/11 01:22:03;;;;;;;0.85;0.80;;;23.50;51.70;;;;;;5080016;28;20150;-69
2023/08/11 01:24:30;;;;;;;1.38;0.93;;;23.50;51.70;;;;;;5078876;28;20047;-69
2023/08/11 01:26:57;;;;;;;1.10;0.90;;;23.50;51.70;;;;;;5078940;28;20023;-69
2023/08/11 01:29:24;;;;;;;0.95;0.75;;;23.50;52.20;;;;;;5078188;28;20065;-69
2023/08/11 01:31:50;;;;;;;1.20;0.93;;;23.50;51.70;;;;;;5079319;28;20044;-68
2023/08/11 01:34:16;;;;;;;1.75;0.90;;;23.50;51.70;;;;;;5076487;28;20497;-67
2023/08/11 01:36:42;;;;;;;1.23;0.80;;;23.50;51.70;;;;;;5078395;28;20055;-69
2023/08/11 01:39:09;;;;;;;1.48;1.00;;;23.50;51.70;;;;;;5077807;28;20154;-68
2023/08/11 01:41:36;;;;;;;1.13;0.90;;;23.50;51.70;;;;;;5078999;28;20063;-68
2023/08/11 01:44:04;;;;;;;1.20;0.90;;;23.50;51.70;;;;;;5076290;28;20178;-63
2023/08/11 01:46:30;;;;;;;1.58;0.98;;;23.50;51.70;;;;;;5077811;28;20522;-61
2023/08/11 01:48:57;;;;;;;1.52;1.00;;;23.50;51.70;;;;;;5074505;28;20017;-61
2023/08/11 01:51:23;;;;;;;1.17;0.98;;;23.50;51.70;;;;;;5076947;28;20032;-62
2023/08/11 01:53:50;;;;;;;1.52;0.85;;;23.50;51.70;;;;;;5079116;28;20072;-62
2023/08/11 01:56:17;;;;;;;1.02;0.90;;;23.50;51.70;;;;;;5062105;28;20054;-62
2023/08/11 01:58:43;;;;;;;0.93;0.77;;;23.50;51.70;;;;;;5077021;28;20025;-62
2023/08/11 02:01:08;;;;;;;0.70;0.70;;;23.50;51.70;;;;;;5076029;28;20121;-62
2023/08/11 02:03:34;;;;;;;0.70;0.70;;;23.50;51.70;;;;;;5076186;28;20073;-62
2023/08/11 02:06:01;;;;;;;1.10;0.70;;;23.50;51.70;;;;;;5073870;28;20064;-60
2023/08/11 02:08:26;;;;;;;1.23;0.90;;;23.50;51.80;;;;;;5074549;28;20100;-63
2023/08/11 02:10:55;;;;;;;1.05;0.80;;;23.50;51.70;;;;;;5078956;28;20025;-64
2023/08/11 02:13:21;;;;;;;0.90;0.77;;;23.50;51.80;;;;;;5082251;28;20036;-62
2023/08/11 02:15:46;;;;;;;0.80;0.80;;;23.50;51.70;;;;;;5082561;28;20086;-63
2023/08/11 02:18:12;;;;;;;1.10;0.80;;;23.50;51.80;;;;;;5084501;28;20120;-62
2023/08/11 02:20:37;;;;;;;1.15;0.93;;;23.50;51.80;;;;;;5074403;28;20468;-63
2023/08/11 02:23:03;;;;;;;1.17;0.80;;;23.50;51.80;;;;;;5082086;28;20062;-63
2023/08/11 02:25:28;;;;;;;1.08;0.90;;;23.50;51.80;;;;;;5084379;28;20038;-68
2023/08/11 02:27:54;;;;;;;1.00;0.80;;;23.40;51.70;;;;;;5064155;28;20450;-67
2023/08/11 02:30:21;;;;;;;1.17;0.90;;;23.40;51.70;;;;;;5082039;28;20052;-68
2023/08/11 02:32:47;;;;;;;1.20;0.90;;;23.40;51.70;;;;;;5084450;28;20069;-68
2023/08/11 02:35:14;;;;;;;1.20;0.95;;;23.40;51.70;;;;;;5083268;28;20024;-68
2023/08/11 02:37:43;;;;;;;1.60;0.90;;;23.40;51.70;;;;;;5084101;28;20521;-67
2023/08/11 02:40:10;;;;;;;;;;;23.40;51.80;;;;;;5084817;28;20479;-70
2023/08/11 02:42:43;;;;;;;0.90;0.77;;;23.40;51.80;;;;;;5083298;28;19998;-68
2023/08/11 02:45:10;;;;;;;1.10;1.00;;;23.40;51.80;;;;;;5085342;28;20031;-70
2023/08/11 02:47:36;;;;;;;1.20;0.77;;;23.40;51.80;;;;;;5084159;28;20050;-69
2023/08/11 02:50:04;;;;;;;1.13;0.90;;;23.40;51.80;;;;;;5083585;28;20024;-68
2023/08/11 02:52:30;;;;;;;1.10;0.90;;;23.40;51.80;;;;;;5067529;28;20448;-67
2023/08/11 02:54:56;;;;;;;1.20;0.88;;;23.40;51.80;;;;;;5084439;28;20105;-69
2023/08/11 02:57:21;;;;;;;1.00;0.80;;;23.40;51.80;;;;;;5085513;28;20020;-68
2023/08/11 02:59:49;;;;;;;0.98;0.82;;;23.40;51.80;;;;;;5083156;28;20039;-69
2023/08/11 03:02:16;;;;;;;1.27;0.90;;;23.40;51.80;;;;;;5083513;28;20028;-68
2023/08/11 03:04:45;;;;;;;1.00;0.85;;;23.40;51.80;;;;;;5084963;28;20024;-68
2023/08/11 03:07:12;;;;;;;1.10;0.82;;;23.40;51.80;;;;;;5067324;28;20032;-69
2023/08/11 03:09:38;;;;;;;1.02;0.80;;;23.40;51.80;;;;;;5083547;28;20547;-68
2023/08/11 03:12:03;;;;;;;1.02;0.80;;;23.40;51.80;;;;;;5086615;28;20107;-69
2023/08/11 03:14:29;;;;;;;0.90;0.80;;;23.40;51.80;;;;;;5082457;28;20035;-68
2023/08/11 03:16:55;;;;;;;0.82;0.80;;;23.40;51.80;;;;;;5085013;28;20106;-69
2023/08/11 03:19:20;;;;;;;1.05;0.88;;;23.40;51.80;;;;;;5084806;28;20059;-70
2023/08/11 03:21:46;;;;;;;0.98;0.80;;;23.40;51.80;;;;;;5082611;28;20031;-69
2023/08/11 03:24:12;;;;;;;0.88;0.80;;;23.40;51.90;;;;;;5082740;28;20093;-71
2023/08/11 03:26:37;;;;;;;1.20;0.90;;;23.40;51.80;;;;;;5084097;28;20024;-71
2023/08/11 03:29:03;;;;;;;1.10;0.80;;;23.40;51.80;;;;;;5078344;28;20028;-70
2023/08/11 03:31:29;;;;;;;1.30;0.90;;;23.40;51.80;;;;;;5080868;28;20035;-70
2023/08/11 03:33:55;;;;;;;0.88;0.80;;;23.40;51.80;;;;;;5081511;28;20111;-70
2023/08/11 03:36:21;;;;;;;0.90;0.80;;;23.40;51.90;;;;;;5081586;28;20557;-69
2023/08/11 03:38:48;;;;;;;0.70;0.70;;;23.30;51.80;;;;;;5078670;28;20032;-68
2023/08/11 03:41:13;;;;;;;1.13;0.80;;;23.40;51.90;;;;;;5080898;28;20032;-70
2023/08/11 03:43:39;;;;;;;0.70;0.70;;;23.40;51.90;;;;;;5079733;28;20050;-67
2023/08/11 03:46:05;;;;;;;1.10;0.80;;;23.40;51.90;;;;;;5079454;28;20028;-69
2023/08/11 03:48:31;;;;;;;0.98;0.80;;;23.30;51.80;;;;;;5080098;28;20036;-69
2023/08/11 03:51:01;;;;;;;1.15;1.00;;;23.30;51.80;;;;;;5079429;28;20047;-67
2023/08/11 03:53:26;;;;;;;1.10;0.90;;;23.30;51.90;;;;;;5079899;28;20031;-70
2023/08/11 03:55:52;;;;;;;0.88;0.80;;;23.40;51.90;;;;;;5079733;28;20044;-68
2023/08/11 03:58:18;;;;;;;1.30;0.80;;;23.30;51.90;;;;;;5077809;28;20027;-67
2023/08/11 04:00:43;;;;;;;1.15;0.70;;;23.30;51.80;;;;;;5065070;28;20120;-68
2023/08/11 04:03:09;;;;;;;0.80;0.80;;;23.30;51.90;;;;;;5064508;28;20341;-68
2023/08/11 04:05:35;;;;;;;1.17;0.88;;;23.30;51.90;;;;;;5081710;28;20028;-64
2023/08/11 04:08:04;;;;;;;0.82;0.82;;;23.30;51.80;;;;;;5078230;28;20671;-64
2023/08/11 04:10:30;;;;;;;1.10;0.82;;;23.30;51.90;;;;;;5078431;28;20475;-64
2023/08/11 04:12:56;;;;;;;0.90;0.80;;;23.30;51.90;;;;;;5078514;28;20082;-64
2023/08/11 04:15:21;;;;;;;1.02;0.80;;;23.30;51.90;;;;;;5078506;28;20467;-63
2023/08/11 04:17:47;;;;;;;1.20;1.00;;;23.30;51.90;;;;;;5077874;28;20427;-63
2023/08/11 04:20:13;;;;;;;1.00;0.90;;;23.30;51.90;;;;;;5080179;28;20027;-63
2023/08/11 04:22:39;;;;;;;1.42;0.90;;;23.30;51.90;;;;;;5079054;28;20047;-64
2023/08/11 04:25:07;;;;;;;0.65;0.65;;;23.30;51.90;;;;;;5077772;28;20032;-64
2023/08/11 04:27:32;;;;;;;0.98;0.88;;;23.30;51.90;;;;;;5078890;28;20024;-64
2023/08/11 04:29:58;;;;;;;0.75;0.70;;;23.20;51.80;;;;;;5078402;28;20504;-63
2023/08/11 04:32:24;;;;;;;1.00;0.90;;;23.30;51.90;;;;;;5079347;28;20024;-64
2023/08/11 04:34:49;;;;;;;0.60;0.60;;;23.30;52.40;;;;;;5064855;28;20021;-64
2023/08/11 04:37:17;;;;;;;1.05;0.80;;;23.30;51.90;;;;;;5078237;28;20027;-63
2023/08/11 04:39:43;;;;;;;1.13;0.77;;;23.30;51.90;;;;;;5076340;28;20163;-63
2023/08/11 04:42:08;;;;;;;0.90;0.80;;;23.30;51.90;;;;;;5077827;28;20323;-64
2023/08/11 04:44:34;;;;;;;0.85;0.77;;;23.30;51.90;;;;;;5077468;28;20486;-68
2023/08/11 04:47:00;;;;;;;0.80;0.70;;;23.20;51.90;;;;;;5077325;28;20076;-66
2023/08/11 04:49:25;;;;;;;1.05;0.80;;;23.20;51.90;;;;;;5078652;28;20028;-67
2023/08/11 04:51:51;;;;;;;0.85;0.70;;;23.20;51.90;;;;;;5080480;28;20935;-68
2023/08/11 04:54:17;;;;;;;0.82;0.80;;;23.20;52.40;;;;;;5078634;28;20519;-67
2023/08/11 04:56:43;;;;;;;1.00;0.90;;;23.20;51.90;;;;;;5077931;28;20028;-67
2023/08/11 04:59:09;;;;;;;0.80;0.65;;;23.20;51.90;;;;;;5076825;28;20028;-67
2023/08/11 05:01:35;;;;;;;0.80;0.70;;;23.20;51.90;;;;;;5078182;28;20039;-67
2023/08/11 05:04:01;;;;;;;1.02;0.80;;;23.20;51.90;;;;;;5077361;28;20070;-67
2023/08/11 05:06:26;;;;;;;0.77;0.77;;;23.20;51.90;;;;;;5077242;28;20502;-70
2023/08/11 05:08:52;;;;;;;0.93;0.73;;;23.20;51.90;;;;;;5062658;28;20021;-67
2023/08/11 05:11:18;;;;;;;1.17;0.90;;;23.20;51.90;;;;;;5079265;28;20527;-69
2023/08/11 05:13:43;;;;;;;0.80;0.75;;;23.20;51.90;;;;;;5078332;28;20029;-66
2023/08/11 05:16:09;;;;;;;0.90;0.70;;;23.20;51.90;;;;;;5076327;28;20036;-63
2023/08/11 05:18:35;;;;;;;1.25;1.00;;;23.20;51.90;;;;;;5075143;28;20076;-65
2023/08/11 05:21:02;;;;;;;1.02;0.80;;;23.20;51.90;;;;;;5078759;28;20028;-63
2023/08/11 05:23:27;;;;;;;0.80;0.80;;;23.20;51.90;;;;;;5079375;28;20034;-63
2023/08/11 05:25:53;;;;;;;0.70;0.70;;;23.20;51.90;;;;;;5078629;28;20028;-64
2023/08/11 05:28:19;;;;;;;0.70;0.70;;;23.20;52.00;;;;;;5076070;28;20028;-64
2023/08/11 05:30:45;;;;;;;0.85;0.70;;;23.20;52.00;;;;;;5076938;28;20445;-63
2023/08/11 05:33:12;;;;;;;1.00;0.90;;;23.20;52.00;;;;;;5078655;28;20425;-63
2023/08/11 05:35:39;;;;;;;0.88;0.73;;;23.20;51.90;;;;;;5077485;28;20032;-63
2023/08/11 05:38:05;;;;;;;1.00;0.70;;;23.20;52.00;;;;;;5075731;28;20081;-63
2023/08/11 05:40:31;;;;;;;0.80;0.80;;;23.20;52.00;;;;;;5077204;28;20036;-64
2023/08/11 05:42:57;;;;;;;1.00;0.90;;;23.20;52.00;;;;;;5078593;28;20032;-63
2023/08/11 05:45:23;;;;;;;1.08;0.80;;;23.20;52.50;;;;;;5076314;28;20024;-63
2023/08/11 05:47:49;;;;;;;1.25;0.85;;;23.20;52.00;;;;;;5075431;28;20036;-66
2023/08/11 05:50:14;;;;;;;0.98;0.80;;;23.20;52.00;;;;;;5076759;28;20024;-63
2023/08/11 05:52:40;;;;;;;1.00;0.90;;;23.20;52.00;;;;;;5078427;28;20099;-63
2023/08/11 05:55:06;;;;;;;1.10;0.70;;;23.10;51.90;;;;;;5077326;28;20036;-72
2023/08/11 05:57:32;;;;;;;0.82;0.70;;;23.10;51.90;;;;;;5078233;28;20090;-70
2023/08/11 05:59:57;;;;;;;0.80;0.80;;;23.10;51.90;;;;;;5077045;28;20081;-70
2023/08/11 06:02:23;;;;;;;1.00;0.73;;;23.20;51.90;;;;;;5074757;28;20020;-71
2023/08/11 06:04:50;;;;;;;1.23;0.82;;;23.10;51.90;;;;;;5077688;28;20071;-71
2023/08/11 06:07:16;;;;;;;1.05;0.80;;;23.10;51.90;;;;;;5076586;28;20073;-71
2023/08/11 06:09:41;;;;;;;0.75;0.75;;;23.10;51.90;;;;;;5077016;28;20480;-70
2023/08/11 06:12:07;;;;;;;0.93;0.80;;;23.10;51.90;;;;;;5077537;28;20107;-72
2023/08/11 06:14:33;;;;;;;0.90;0.80;;;23.10;51.90;;;;;;5075985;28;20017;-71
2023/08/11 06:16:59;;;;;;;0.82;0.70;;;23.10;51.90;;;;;;5080413;28;20032;-69
2023/08/11 06:19:25;;;;;;;1.08;0.90;;;23.10;52.00;;;;;;5078213;28;20133;-69
2023/08/11 06:21:51;;;;;;;1.25;0.80;;;23.10;52.00;;;;;;5080142;28;20024;-69
2023/08/11 06:24:16;;;;;;;1.17;0.80;;;23.20;52.00;;;;;;5078943;28;20039;-70
2023/08/11 06:26:43;;;;;;;1.00;0.80;;;23.20;52.00;;;;;;5079933;28;20025;-62
2023/08/11 06:29:09;;;;;;;0.88;0.77;;;23.20;51.90;;;;;;5076652;28;20032;-63
2023/08/11 06:31:34;;;;;;;0.82;0.80;;;23.10;51.90;;;;;;5076259;28;20035;-61
2023/08/11 06:34:01;;;;;;;0.60;0.60;;;23.20;51.90;;;;;;5077182;28;20028;-61
2023/08/11 06:36:26;;;;;;;0.70;0.70;;;23.20;51.90;;;;;;5078413;28;20480;-64
2023/08/11 06:38:52;;;;;;;0.60;0.60;;;23.20;51.90;;;;;;5077532;28;20037;-63
2023/08/11 06:41:18;;;;;;;1.00;0.80;;;23.20;51.80;;;;;;5077496;28;20379;-62
2023/08/11 06:43:43;;;;;;;1.20;0.90;;;23.20;51.80;;;;;;5076746;28;20028;-62
2023/08/11 06:46:09;;;;;;;0.93;0.80;;;23.30;51.80;;;;;;5076521;28;20099;-61
2023/08/11 06:48:35;;;;;;;1.23;0.88;;;23.30;51.70;;;;;;5074629;28;20037;-63
2023/08/11 06:51:00;;;;;;;0.98;0.82;;;23.30;51.70;;;;;;5074787;28;20112;-61
2023/08/11 06:53:26;;;;;;;0.80;0.80;;;23.30;51.70;;;;;;5074388;28;20040;-61
2023/08/11 06:55:52;;;;;;;1.00;0.88;;;23.30;51.60;;;;;;5078529;28;20090;-61
2023/08/11 06:58:17;;;;;;;0.93;0.80;;;23.40;51.60;;;;;;5075535;28;20038;-61
2023/08/11 07:00:43;;;;;;;1.23;0.80;;;23.40;51.60;;;;;;5077785;28;20031;-61
2023/08/11 07:03:09;;;;;;;1.50;1.00;;;23.40;51.50;;;;;;5079169;28;20032;-61
2023/08/11 07:05:35;;;;;;;1.15;1.00;;;23.40;51.50;;;;;;5079863;28;20032;-68
2023/08/11 07:08:01;;;;;;;1.25;0.90;;;23.40;51.50;;;;;;5079579;28;20479;-68
2023/08/11 07:10:26;;;;;;;1.48;0.90;;;23.50;51.50;;;;;;5080945;28;20059;-68
2023/08/11 07:12:52;;;;;;;1.30;0.90;;;23.50;51.50;;;;;;5080356;28;20048;-68
2023/08/11 07:15:17;;;;;;;1.05;0.95;;;23.50;51.40;;;;;;5079006;28;20032;-67
2023/08/11 07:17:43;;;;;;;1.08;0.90;;;23.50;51.40;;;;;;5078998;28;20115;-68
2023/08/11 07:20:09;;;;;;;1.30;0.90;;;23.50;51.40;;;;;;5078880;28;20032;-68
2023/08/11 07:22:35;;;;;;;1.13;0.90;;;23.50;51.40;;;;;;5078763;28;20115;-68
2023/08/11 07:25:00;;;;;;;1.00;0.80;;;23.50;51.30;;;;;;5080948;28;20031;-68
2023/08/11 07:27:26;;;;;;;1.13;0.93;;;23.60;51.30;;;;;;5080354;28;20033;-68
2023/08/11 07:29:52;;;;;;;1.50;1.00;;;23.60;51.30;;;;;;5082216;28;20035;-67
2023/08/11 07:32:17;;;;;;;1.30;1.10;;;23.60;51.30;;;;;;5079193;28;20492;-67
2023/08/11 07:34:46;;;;;;;1.05;0.80;;;23.60;51.30;;;;;;5080555;28;20020;-70
2023/08/11 07:37:11;;;;;;;1.60;1.08;;;23.60;51.40;;;;;;5079454;28;20040;-70
2023/08/11 07:39:37;;;;;;;1.20;0.90;;;23.60;51.30;;;;;;5078295;28;20043;-71
2023/08/11 07:42:03;;;;;;;0.80;0.60;;;23.70;51.40;;;;;;5078465;28;20147;-70
2023/08/11 07:44:33;;;;;;;1.20;1.00;;;23.60;51.30;;;;;;5081307;28;20029;-70
2023/08/11 07:47:01;;;;;;;1.23;1.00;;;23.70;51.30;;;;;;5076865;28;20166;-71
2023/08/11 07:49:27;;;;;;;1.20;0.93;;;23.70;51.20;;;;;;5080696;28;20115;-70
2023/08/11 07:51:53;;;;;;;1.17;1.05;;;23.70;51.20;;;;;;5080585;28;20120;-69
2023/08/11 07:54:19;;;;;;;0.95;0.85;;;23.70;51.20;;;;;;5081146;28;20590;-70
2023/08/11 07:56:45;;;;;;;1.33;1.00;;;23.70;51.10;;;;;;5079555;28;20059;-71
2023/08/11 07:59:11;;;;;;;1.40;0.93;;;23.70;51.20;;;;;;5079855;28;20025;-70
2023/08/11 08:01:37;;;;;;;1.33;0.90;;;23.80;51.20;;;;;;5060151;28;20419;-71
2023/08/11 08:04:04;;;;;;;1.50;1.10;;;23.80;51.20;;;;;;5078997;28;20052;-71
2023/08/11 08:06:31;;;;;;;1.40;0.93;;;23.80;51.20;;;;;;5080641;28;20105;-70
2023/08/11 08:08:57;;;;;;;1.30;0.90;;;23.80;51.20;;;;;;5078485;28;20028;-70
2023/08/11 08:11:23;;;;;;;1.67;1.00;;;23.80;51.10;;;;;;5079741;28;20031;-69
2023/08/11 08:13:49;;;;;;;1.33;1.00;;;23.90;51.20;;;;;;5077861;28;20527;-69
2023/08/11 08:16:14;;;;;;;1.10;0.90;;;23.90;51.10;;;;;;5078922;28;20043;-69
2023/08/11 08:18:40;;;;;;;1.45;1.10;;;23.90;51.10;;;;;;5078378;28;20153;-68
2023/08/11 08:21:05;;;;;;;1.40;1.10;;;23.90;51.10;;;;;;5079037;28;20028;-68
2023/08/11 08:23:31;;;;;;;1.30;1.00;;;23.90;51.00;;;;;;5077916;28;20024;-68
2023/08/11 08:25:57;;;;;;;1.65;1.10;;;23.90;51.00;;;;;;5076495;28;20441;-67
2023/08/11 08:28:23;;;;;;;1.45;1.00;;;23.90;51.00;;;;;;5079214;28;20065;-68
2023/08/11 08:30:50;;;;;;;1.33;1.02;;;23.90;51.00;;;;;;5079265;28;20021;-68
2023/08/11 08:33:15;;;;;;;2.13;1.20;;;23.90;50.90;;;;;;5080550;28;20024;-69
2023/08/11 08:35:41;;;;;;;1.80;1.27;;;24.00;51.00;;;;;;5078707;28;20031;-68
2023/08/11 08:38:06;;;;;;;1.70;1.20;;;23.90;50.90;;;;;;5078420;28;20032;-68
2023/08/11 08:40:35;;;;;;;1.75;1.30;;;24.00;51.00;;;;;;5079054;28;20115;-69
2023/08/11 08:43:01;;;;;;;1.70;1.07;;;24.00;51.00;;;;;;5064260;28;20111;-68
2023/08/11 08:45:28;;;;;;;1.95;1.20;;;24.00;51.00;;;;;;5077926;28;20037;-70
2023/08/11 08:47:55;;;;;;;1.42;1.20;;;24.00;51.00;;;;;;5077710;28;20036;-69
2023/08/11 08:50:22;;;;;;;1.48;1.20;;;24.00;51.00;;;;;;5078896;28;20028;-69
2023/08/11 08:52:50;;;;;;;1.27;1.02;;;24.10;51.10;;;;;;5078439;28;20020;-70
2023/08/11 08:55:17;;;;;;;1.80;1.17;;;24.10;51.00;;;;;;5077234;28;20134;-69
2023/08/11 08:57:43;;;;;;;2.25;1.35;;;24.10;51.00;;;;;;5077080;28;20028;-68
2023/08/11 09:00:09;;;;;;;1.92;1.20;;;24.10;51.00;;;;;;5077702;28;20028;-69
2023/08/11 09:02:36;;;;;;;1.75;1.30;;;24.10;50.90;;;;;;5075945;28;20036;-69
2023/08/11 09:05:02;;;;;;;1.80;1.30;;;24.10;50.90;;;;;;5061234;28;20024;-69
2023/08/11 09:07:27;;;;;;;1.65;1.20;;;24.20;51.40;;;;;;5076493;28;20078;-69
2023/08/11 09:09:53;;;;;;;1.30;1.10;;;24.20;51.00;;;;;;5079593;28;20457;-70
2023/08/11 09:12:19;;;;;;;2.78;1.30;;;24.20;51.00;;;;;;5075429;28;20035;-70
2023/08/11 09:14:44;;;;;;;3.00;1.50;;;24.20;51.00;;;;;;5078302;28;20024;-69
2023/08/11 09:17:10;;;;;;;1.40;1.05;;;24.20;51.10;;;;;;5078559;28;20037;-69
2023/08/11 09:19:37;;;;;;;1.95;1.30;;;24.20;51.10;;;;;;5077968;28;20080;-68
2023/08/11 09:22:09;;;;;;;2.10;1.30;;;24.20;51.00;;;;;;5076341;28;20052;-69
2023/08/11 09:24:35;;;;;;;2.00;1.33;;;24.20;51.10;;;;;;5078170;28;20709;-61
2023/08/11 09:27:00;;;;;;;1.92;1.40;;;24.30;51.20;;;;;;5076594;28;20095;-70
2023/08/11 09:29:27;;;;;;;2.08;1.45;;;24.20;51.10;;;;;;5076761;28;20078;-70
2023/08/11 09:31:56;;;;;;;1.90;1.30;;;24.30;51.10;;;;;;5078427;28;20467;-70
2023/08/11 09:34:23;;;;;;;2.85;1.48;;;24.30;51.10;;;;;;5077313;28;20020;-71
2023/08/11 09:36:49;;;;;;;1.80;1.35;;;24.30;51.10;;;;;;5079721;28;20034;-69
2023/08/11 09:39:15;;;;;;;2.60;1.50;;;24.30;51.20;;;;;;5078550;28;20032;-70
2023/08/11 09:41:48;;;;;;;2.95;1.48;;;24.30;51.20;;;;;;5076198;28;20036;-70
2023/08/11 09:44:15;;;;;;;2.20;1.60;;;24.30;51.10;;;;;;5078129;28;20096;-69
2023/08/11 09:46:42;;;;;;;2.10;1.50;;;24.30;51.10;;;;;;5075779;28;20473;-70
2023/08/11 09:49:08;;;;;;;1.75;1.30;;;24.30;51.10;;;;;;5079143;28;20032;-68
2023/08/11 09:51:35;;;;;;;2.75;1.42;;;24.30;51.10;;;;;;5079924;28;20025;-70
2023/08/11 09:54:09;;;;;;;1.48;1.20;;;24.40;51.10;;;;;;5079288;28;20029;-70
2023/08/11 09:56:36;;;;;;;1.98;1.38;;;24.40;51.10;;;;;;5079059;28;20525;-64
2023/08/11 09:59:04;;;;;;;1.65;1.35;;;24.40;51.10;;;;;;5078312;28;20042;-62
2023/08/11 10:01:33;;;;;;;2.45;1.50;;;24.40;51.20;;;;;;5075640;28;20163;-62
2023/08/11 10:04:03;;;;;;;2.15;1.50;;;24.40;51.20;;;;;;5078140;28;20086;-63
2023/08/11 10:06:31;;;;;;;;;;;24.40;51.20;;;;;;5078231;28;20539;-63
2023/08/11 10:09:02;;;;;;;2.20;1.52;;;24.40;51.10;;;;;;5077057;28;19912;-62
2023/08/11 10:11:32;;;;;;;2.05;1.50;;;24.50;51.20;;;;;;5076223;28;20021;-64
2023/08/11 10:14:02;;;;;;;2.05;1.40;;;24.50;51.10;;;;;;5079528;28;20028;-64
2023/08/11 10:16:28;;;;;;;1.77;1.35;;;24.50;51.20;;;;;;5076104;28;20031;-63
2023/08/11 10:18:56;;;;;;;1.83;1.20;;;24.50;51.20;;;;;;5076864;28;20063;-62
2023/08/11 10:21:24;;;;;;;2.03;1.42;;;24.50;51.10;;;;;;5077498;28;20029;-63
2023/08/11 10:23:51;;;;;;;3.33;1.40;;;24.50;51.10;;;;;;5077501;28;20037;-63
2023/08/11 10:26:16;;;;;;;1.88;1.40;;;24.50;51.00;;;;;;5075812;28;20078;-62
2023/08/11 10:28:42;;;;;;;2.17;1.50;;;24.50;51.00;;;;;;5076645;28;20476;-63
2023/08/11 10:31:08;;;;;;;2.63;1.60;;;24.50;51.00;;;;;;5075118;28;20082;-63
2023/08/11 10:33:33;;;;;;;2.53;1.63;;;24.50;51.00;;;;;;5076105;28;20032;-63
2023/08/11 10:36:02;;;;;;;2.40;1.70;;;24.50;50.90;;;;;;5081499;28;20028;-62
2023/08/11 10:38:30;;;;;;;2.42;1.60;;;24.50;50.90;;;;;;5082269;28;20044;-64
2023/08/11 10:41:00;;;;;;;1.95;1.40;;;24.60;50.90;;;;;;5083067;28;20032;-62
2023/08/11 10:43:32;;;;;;;1.70;1.35;;;24.60;50.90;;;;;;5081172;28;20111;-62
2023/08/11 10:46:16;;;;;;;1.98;1.50;;;24.60;50.90;;;;;;5080392;28;20067;-64
2023/08/11 10:48:42;;;;;;;1.70;1.30;;;24.60;50.80;;;;;;5080030;28;20056;-63
2023/08/11 10:51:27;;;;;;;1.80;1.38;;;24.60;50.80;;;;;;5082293;28;20013;-63
2023/08/11 10:54:18;;;;;;;1.70;1.30;;;24.60;50.80;;;;;;5080359;28;20054;-63
2023/08/11 10:56:45;;;;;;;2.33;1.60;;;24.60;50.80;;;;;;5081750;28;20028;-64
2023/08/11 10:59:29;;;;;;;1.70;1.20;;;24.60;50.80;;;;;;5082152;28;20047;-63
2023/08/11 11:01:56;;;;;;;1.80;1.40;;;24.60;50.80;;;;;;5080770;28;20471;-63
2023/08/11 11:04:26;;;;;;;1.80;1.40;;;24.60;50.70;;;;;;5082404;28;20024;-63
2023/08/11 11:06:52;;;;;;;1.92;1.48;;;24.70;50.70;;;;;;5081831;28;20032;-68
2023/08/11 11:09:18;;;;;;;1.88;1.25;;;24.60;50.70;;;;;;5082564;28;20482;-68
2023/08/11 11:11:44;;;;;;;1.73;1.40;;;24.70;50.80;;;;;;5081753;28;20086;-69
2023/08/11 11:14:11;;;;;;;2.03;1.50;;;24.70;50.80;;;;;;5079527;28;20024;-68
2023/08/11 11:16:38;;;;;;;1.80;1.30;;;24.60;50.80;;;;;;5078505;28;20555;-68
2023/08/11 11:19:05;;;;;;;1.75;1.20;;;24.70;50.80;;;;;;5083032;28;20035;-69
2023/08/11 11:21:32;;;;;;;1.75;1.15;;;24.70;50.90;;;;;;5078616;28;20029;-68
2023/08/11 11:23:58;;;;;;;1.60;1.20;;;24.70;51.00;;;;;;5081300;28;20045;-69
2023/08/11 11:26:29;;;;;;;1.73;1.30;;;24.70;51.00;;;;;;5068195;28;20024;-68
2023/08/11 11:28:57;;;;;;;1.58;1.20;;;24.70;51.00;;;;;;5080986;28;20468;-69
2023/08/11 11:31:24;;;;;;;1.63;1.17;;;24.70;51.10;;;;;;5068547;28;20033;-68
2023/08/11 11:33:50;;;;;;;2.08;1.48;;;24.70;51.00;;;;;;5076553;28;20455;-68
2023/08/11 11:36:21;;;;;;;1.85;1.40;;;24.70;50.90;;;;;;5080883;28;20867;-62
2023/08/11 11:38:47;;;;;;;1.90;1.48;;;24.70;50.80;;;;;;5080691;28;20032;-62
2023/08/11 11:41:15;;;;;;;2.80;1.30;;;24.80;50.90;;;;;;5080431;28;20028;-62
2023/08/11 11:43:42;;;;;;;2.10;1.40;;;24.80;50.80;;;;;;5080937;28;20035;-61
2023/08/11 11:46:14;;;;;;;1.90;1.30;;;24.80;50.80;;;;;;5079294;28;20074;-64
2023/08/11 11:48:43;;;;;;;2.25;1.50;;;24.80;50.80;;;;;;5078248;28;20501;-62
2023/08/11 11:51:09;;;;;;;2.17;1.30;;;24.80;50.80;;;;;;5067024;28;20127;-62
2023/08/11 11:53:35;;;;;;;1.45;1.10;;;24.80;50.80;;;;;;5080249;28;20017;-63
2023/08/11 11:56:03;;;;;;;1.70;1.30;;;24.80;50.80;;;;;;5080158;28;20456;-63
2023/08/11 11:58:28;;;;;;;2.00;1.40;;;24.80;50.80;;;;;;5079848;28;20484;-63
2023/08/11 12:00:54;;;;;;;1.70;1.33;;;24.80;50.70;;;;;;5079440;28;20027;-62
2023/08/11 12:03:22;;;;;;;1.60;1.27;;;24.80;50.70;;;;;;5077294;28;20477;-62
2023/08/11 12:05:47;;;;;;;2.08;1.25;;;24.80;50.70;;;;;;5078588;28;20028;-62
2023/08/11 12:08:22;;;;;;;1.90;1.42;;;24.80;50.80;;;;;;5080084;28;20024;-62
2023/08/11 12:10:49;;;;;;;1.90;1.38;;;24.80;50.80;;;;;;5061968;28;20587;-62
2023/08/11 12:13:16;;;;;;;1.80;1.30;;;24.90;50.80;;;;;;5080299;28;20031;-64
2023/08/11 12:15:42;;;;;;;1.60;1.23;;;24.90;50.80;;;;;;5078335;28;20024;-64
2023/08/11 12:18:08;;;;;;;2.05;1.40;;;24.90;50.80;;;;;;5078435;28;20024;-63
2023/08/11 12:20:36;;;;;;;1.65;1.25;;;24.80;50.70;;;;;;5079296;28;20028;-63
2023/08/11 12:23:02;;;;;;;1.67;1.20;;;24.90;50.80;;;;;;5078316;28;20027;-64
2023/08/11 12:25:28;;;;;;;2.15;1.40;;;24.90;50.80;;;;;;5069845;28;20032;-64
2023/08/11 12:27:53;;;;;;;1.83;1.33;;;24.90;50.70;;;;;;5078512;28;20052;-63
2023/08/11 12:30:19;;;;;;;2.13;1.50;;;24.90;51.20;;;;;;5079320;28;20466;-63
2023/08/11 12:32:45;;;;;;;1.95;1.30;;;24.90;50.70;;;;;;5078836;28;20066;-63
2023/08/11 12:35:11;;;;;;;2.08;1.38;;;24.90;50.70;;;;;;5077824;28;20467;-63
2023/08/11 12:37:38;;;;;;;2.03;1.40;;;24.90;50.70;;;;;;5079335;28;20031;-64
2023/08/11 12:40:04;;;;;;;3.28;1.40;;;24.90;50.70;;;;;;5079683;28;20597;-64
2023/08/11 12:42:29;;;;;;;1.65;1.25;;;24.90;50.70;;;;;;5078038;28;20024;-64
2023/08/11 12:44:55;;;;;;;2.70;1.23;;;24.90;50.70;;;;;;5078958;28;20040;-62